createdAt,value
2019-04-07T00:00:42.827Z,31.53
2019-04-07T00:03:10.542Z,32.83
2019-04-07T00:05:37.810Z,33.40
2019-04-07T00:08:04.817Z,32.57
2019-04-07T00:10:31.618Z,33.13
2019-04-07T00:12:58.423Z,33.30
2019-04-07T00:15:25.914Z,32.60
2019-04-07T00:17:54.305Z,32.57
2019-04-07T00:20:21.255Z,31.23
2019-04-07T00:22:49.001Z,32.33
2019-04-07T00:25:17.722Z,33.27
2019-04-07T00:27:44.414Z,30.47
2019-04-07T00:30:12.538Z,32.20
2019-04-07T00:32:39.249Z,31.40
2019-04-07T00:35:06.008Z,31.20
2019-04-07T00:37:33.704Z,33.17
2019-04-07T00:40:00.433Z,32.33
2019-04-07T00:42:27.533Z,33.30
2019-04-07T00:44:54.482Z,32.23
2019-04-07T00:47:21.781Z,31.83
2019-04-07T00:49:48.599Z,32.30
2019-04-07T00:52:17.315Z,37.63
2019-04-07T00:54:44.448Z,39.33
2019-04-07T00:57:11.023Z,31.60
2019-04-07T00:59:37.661Z,31.50
2019-04-07T01:02:04.427Z,32.27
2019-04-07T01:04:31.902Z,31.60
2019-04-07T01:06:59.152Z,30.87
2019-04-07T01:09:25.867Z,31.23
2019-04-07T01:11:52.448Z,33.87
2019-04-07T01:14:21.438Z,31.60
2019-04-07T01:16:48.991Z,32.67
2019-04-07T01:19:15.589Z,32.77
2019-04-07T01:21:42.357Z,33.13
2019-04-07T01:24:12.286Z,32.70
2019-04-07T01:26:39.644Z,33.03
2019-04-07T01:29:06.479Z,35.10
2019-04-07T01:31:33.367Z,35.13
2019-04-07T01:34:00.049Z,34.83
2019-04-07T01:36:28.337Z,32.60
2019-04-07T01:38:55.045Z,34.77
2019-04-07T01:41:51.056Z,34.87
2019-04-07T01:44:31.434Z,34.17
2019-04-07T01:50:28.589Z,35.07
2019-04-07T01:53:00.580Z,34.10
2019-04-07T01:55:52.881Z,35.57
2019-04-07T01:58:30.800Z,34.47
2019-04-07T02:01:23.100Z,32.83
2019-04-07T02:04:00.040Z,35.47
2019-04-07T02:06:36.554Z,33.60
2019-04-07T02:09:18.310Z,32.03
2019-04-07T02:12:03.508Z,34.30
2019-04-07T02:14:46.714Z,35.47
2019-04-07T02:17:20.995Z,32.70
2019-04-07T02:20:01.301Z,33.83
2019-04-07T02:22:39.315Z,33.67
2019-04-07T02:25:31.786Z,33.13
2019-04-07T02:28:07.527Z,36.50
2019-04-07T02:31:02.758Z,33.30
2019-04-07T02:33:39.333Z,35.03
2019-04-07T02:36:23.923Z,35.97
2019-04-07T02:39:02.939Z,32.93
2019-04-07T02:41:42.092Z,33.57
2019-04-07T02:44:27.818Z,32.67
2019-04-07T02:47:01.746Z,33.93
2019-04-07T02:49:39.289Z,34.10
2019-04-07T02:52:13.095Z,35.40
2019-04-07T02:54:55.851Z,35.40
2019-04-07T02:57:40.434Z,34.37
2019-04-07T03:00:22.363Z,36.67
2019-04-07T03:03:16.958Z,41.77
2019-04-07T03:05:54.287Z,36.53
2019-04-07T03:08:42.739Z,36.70
2019-04-07T03:11:42.825Z,35.60
2019-04-07T03:14:17.806Z,35.67
2019-04-07T03:16:59.970Z,36.33
2019-04-07T03:19:33.377Z,36.50
2019-04-07T03:22:20.598Z,35.83
2019-04-07T03:25:04.557Z,37.03
2019-04-07T03:27:53.589Z,35.77
2019-04-07T03:30:45.343Z,35.70
2019-04-07T03:33:31.881Z,36.60
2019-04-07T03:36:06.851Z,34.77
2019-04-07T03:38:48.135Z,33.07
2019-04-07T03:41:20.637Z,36.57
2019-04-07T03:43:54.990Z,35.87
2019-04-07T03:46:32.583Z,36.60
2019-04-07T03:49:11.297Z,34.53
2019-04-07T03:51:58.092Z,36.20
2019-04-07T03:54:43.413Z,36.57
2019-04-07T03:57:20.288Z,36.47
2019-04-07T04:00:06.623Z,36.07
2019-04-07T04:02:56.779Z,35.20
2019-04-07T04:05:34.809Z,36.00
2019-04-07T04:08:11.313Z,34.23
2019-04-07T04:10:45.400Z,33.67
2019-04-07T04:13:20.509Z,34.47
2019-04-07T04:15:57.092Z,34.73
2019-04-07T04:18:24.518Z,34.77
2019-04-07T04:20:52.875Z,35.33
2019-04-07T04:23:20.180Z,34.43
2019-04-07T04:25:47.068Z,36.93
2019-04-07T04:28:16.384Z,35.87
2019-04-07T04:30:44.114Z,34.23
2019-04-07T04:33:12.470Z,35.73
2019-04-07T04:35:39.164Z,36.07
2019-04-07T04:38:06.151Z,34.83
2019-04-07T04:40:33.196Z,33.87
2019-04-07T04:42:59.902Z,33.67
2019-04-07T04:45:27.525Z,34.90
2019-04-07T04:47:56.094Z,34.43
2019-04-07T04:50:23.704Z,34.47
2019-04-07T04:52:52.340Z,35.27
2019-04-07T04:55:20.418Z,34.83
2019-04-07T04:57:47.948Z,35.00
2019-04-07T05:00:15.835Z,35.83
2019-04-07T05:02:44.172Z,35.47
2019-04-07T05:05:11.209Z,34.40
2019-04-07T05:07:50.087Z,34.73
2019-04-07T05:10:07.997Z,36.93
2019-04-07T05:12:35.132Z,35.03
2019-04-07T05:15:01.964Z,36.30
2019-04-07T05:17:28.827Z,34.97
2019-04-07T05:19:55.520Z,34.03
2019-04-07T05:22:22.552Z,36.97
2019-04-07T05:24:50.559Z,37.63
2019-04-07T05:27:17.462Z,35.27
2019-04-07T05:29:44.691Z,36.07
2019-04-07T05:32:12.208Z,34.60
2019-04-07T05:34:42.328Z,34.90
2019-04-07T05:37:09.858Z,34.03
2019-04-07T05:39:37.216Z,35.77
2019-04-07T05:42:04.655Z,36.80
2019-04-07T05:44:32.016Z,37.17
2019-04-07T05:46:59.081Z,33.57
2019-04-07T05:49:25.833Z,36.10
2019-04-07T05:51:52.558Z,36.80
2019-04-07T05:54:20.769Z,37.27
2019-04-07T05:56:48.255Z,35.27
2019-04-07T05:59:15.656Z,36.73
2019-04-07T06:01:43.420Z,37.23
2019-04-07T06:04:14.355Z,35.47
2019-04-07T06:06:41.460Z,35.83
2019-04-07T06:09:08.053Z,34.03
2019-04-07T06:11:36.137Z,34.73
2019-04-07T06:14:03.191Z,33.83
2019-04-07T06:16:30.662Z,33.03
2019-04-07T06:18:57.763Z,32.83
2019-04-07T06:21:24.555Z,31.67
2019-04-07T06:23:59.404Z,31.90
2019-04-07T06:26:25.600Z,30.87
2019-04-07T06:28:57.385Z,29.90
2019-04-07T06:31:24.403Z,30.30
2019-04-07T06:33:49.974Z,28.60
2019-04-07T06:36:18.678Z,29.20
2019-04-07T06:38:51.238Z,29.47
2019-04-07T06:41:16.122Z,29.87
2019-04-07T06:43:47.967Z,28.47
2019-04-07T06:46:35.711Z,29.73
2019-04-07T06:49:38.101Z,28.20
2019-04-07T06:52:24.795Z,26.83
2019-04-07T06:55:00.562Z,27.00
2019-04-07T06:57:46.629Z,25.30
2019-04-07T07:00:36.511Z,26.13
2019-04-07T07:03:19.570Z,27.53
2019-04-07T07:06:08.544Z,26.15
2019-04-07T07:08:45.869Z,24.77
2019-04-07T07:11:30.028Z,23.80
2019-04-07T07:14:34.930Z,25.47
2019-04-07T07:17:16.966Z,24.80
2019-04-07T07:20:04.215Z,24.52
2019-04-07T07:22:45.982Z,24.98
2019-04-07T07:25:12.393Z,25.23
2019-04-07T07:27:41.594Z,24.53
2019-04-07T07:30:09.775Z,25.27
2019-04-07T07:32:37.399Z,23.92
2019-04-07T07:35:05.320Z,23.27
2019-04-07T07:37:33.363Z,23.42
2019-04-07T07:39:59.956Z,24.00
2019-04-07T07:42:26.811Z,25.63
2019-04-07T07:44:53.650Z,24.23
2019-04-07T07:47:22.535Z,26.00
2019-04-07T07:49:48.854Z,25.27
2019-04-07T07:52:18.558Z,22.48
2019-04-07T07:54:46.114Z,22.75
2019-04-07T07:57:13.375Z,23.75
2019-04-07T07:59:40.438Z,23.73
2019-04-07T08:02:07.583Z,24.43
2019-04-07T08:04:34.596Z,24.00
2019-04-07T08:07:02.598Z,23.52
2019-04-07T08:09:29.359Z,23.98
2019-04-07T08:11:56.153Z,24.80
2019-04-07T08:14:22.875Z,24.72
2019-04-07T08:16:52.391Z,24.02
2019-04-07T08:19:20.120Z,24.25
2019-04-07T08:21:50.322Z,23.20
2019-04-07T08:24:19.022Z,23.92
2019-04-07T08:26:45.939Z,24.67
2019-04-07T08:29:13.900Z,24.40
2019-04-07T08:31:41.030Z,23.38
2019-04-07T08:34:07.833Z,23.87
2019-04-07T08:36:34.857Z,24.50
2019-04-07T08:39:01.855Z,24.55
2019-04-07T08:41:30.126Z,23.00
2019-04-07T08:44:00.586Z,24.90
2019-04-07T08:46:32.283Z,23.98
2019-04-07T08:49:02.166Z,24.50
2019-04-07T08:51:31.663Z,22.48
2019-04-07T08:53:59.772Z,23.07
2019-04-07T08:56:26.898Z,22.35
2019-04-07T08:58:54.395Z,21.30
2019-04-07T09:01:21.846Z,20.85
2019-04-07T09:03:50.760Z,20.17
2019-04-07T09:06:17.419Z,20.85
2019-04-07T09:08:44.057Z,20.08
2019-04-07T09:11:13.180Z,21.80
2019-04-07T09:13:41.700Z,20.90
2019-04-07T09:16:28.025Z,20.35
2019-04-07T09:19:09.423Z,20.25
2019-04-07T09:21:50.246Z,20.48
2019-04-07T09:24:38.153Z,20.35
2019-04-07T09:27:23.571Z,20.17
2019-04-07T09:30:01.178Z,19.65
2019-04-07T09:32:57.846Z,19.15
2019-04-07T09:35:47.595Z,18.40
2019-04-07T09:38:33.396Z,18.48
2019-04-07T09:41:13.167Z,20.08
2019-04-07T09:44:05.620Z,20.02
2019-04-07T09:46:53.028Z,19.30
2019-04-07T09:49:56.620Z,19.12
2019-04-07T09:52:34.154Z,18.40
2019-04-07T09:55:16.695Z,17.73
2019-04-07T09:58:12.019Z,18.80
2019-04-07T10:00:46.615Z,17.82
2019-04-07T10:03:31.581Z,18.48
2019-04-07T10:06:18.925Z,17.48
2019-04-07T10:09:12.063Z,18.27
2019-04-07T10:12:00.414Z,18.12
2019-04-07T10:14:45.352Z,16.97
2019-04-07T10:17:30.042Z,16.60
2019-04-07T10:20:22.017Z,17.52
2019-04-07T10:22:58.684Z,15.85
2019-04-07T10:26:04.012Z,16.35
2019-04-07T10:28:51.470Z,15.60
2019-04-07T10:31:25.476Z,15.08
2019-04-07T10:34:06.154Z,16.00
2019-04-07T10:36:59.140Z,15.30
2019-04-07T10:39:49.752Z,14.75
2019-04-07T10:42:23.581Z,15.18
2019-04-07T10:44:58.743Z,15.08
2019-04-07T10:47:44.812Z,14.38
2019-04-07T10:50:43.852Z,14.03
2019-04-07T10:53:31.312Z,12.78
2019-04-07T10:56:04.473Z,11.53
2019-04-07T10:58:42.402Z,11.57
2019-04-07T11:01:22.924Z,11.20
2019-04-07T11:04:00.654Z,12.05
2019-04-07T11:07:06.450Z,11.80
2019-04-07T11:09:54.246Z,11.00
2019-04-07T11:12:39.836Z,11.22
2019-04-07T11:15:27.564Z,11.25
2019-04-07T11:18:17.494Z,10.40
2019-04-07T11:21:03.477Z,10.40
2019-04-07T11:23:39.197Z,8.90
2019-04-07T11:26:25.282Z,10.20
2019-04-07T11:29:08.521Z,10.40
2019-04-07T11:31:59.407Z,10.40
2019-04-07T11:35:04.911Z,10.03
2019-04-07T11:37:55.585Z,10.38
2019-04-07T11:40:52.201Z,10.30
2019-04-07T11:43:29.505Z,9.70
2019-04-07T11:46:18.762Z,9.58
2019-04-07T11:48:54.839Z,9.83
2019-04-07T11:51:29.228Z,10.40
2019-04-07T11:54:25.162Z,9.48
2019-04-07T11:57:15.387Z,9.13
2019-04-07T12:00:14.284Z,9.28
2019-04-07T12:02:54.473Z,10.18
2019-04-07T12:05:39.823Z,10.18
2019-04-07T12:08:18.572Z,9.93
2019-04-07T12:11:13.598Z,9.53
2019-04-07T12:13:59.757Z,9.58
2019-04-07T12:16:41.703Z,10.15
2019-04-07T12:19:22.810Z,10.65
2019-04-07T12:22:10.454Z,10.15
2019-04-07T12:25:00.732Z,10.43
2019-04-07T12:27:58.121Z,9.98
2019-04-07T12:30:48.808Z,8.83
2019-04-07T12:33:22.994Z,10.13
2019-04-07T12:35:59.085Z,9.53
2019-04-07T12:38:35.012Z,9.28
2019-04-07T12:41:23.026Z,10.03
2019-04-07T12:44:10.406Z,9.85
2019-04-07T12:46:50.983Z,10.40
2019-04-07T12:49:43.556Z,10.70
2019-04-07T12:52:17.375Z,10.53
2019-04-07T12:54:57.060Z,10.15
2019-04-07T12:57:30.933Z,10.25
2019-04-07T13:00:30.894Z,10.63
2019-04-07T13:03:08.814Z,10.48
2019-04-07T13:05:54.182Z,9.78
2019-04-07T13:08:40.704Z,10.75
2019-04-07T13:11:24.722Z,10.23
2019-04-07T13:14:03.767Z,10.60
2019-04-07T13:17:00.197Z,10.25
2019-04-07T13:19:43.814Z,10.05
2019-04-07T13:22:19.324Z,10.63
2019-04-07T13:25:14.329Z,9.65
2019-04-07T13:27:58.954Z,10.25
2019-04-07T13:30:50.024Z,9.68
2019-04-07T13:33:28.971Z,10.15
2019-04-07T13:36:22.556Z,10.93
2019-04-07T13:39:08.328Z,10.72
2019-04-07T13:41:55.721Z,9.65
2019-04-07T13:44:41.659Z,10.13
2019-04-07T13:47:28.752Z,10.53
2019-04-07T13:50:12.787Z,10.80
2019-04-07T13:53:05.627Z,11.48
2019-04-07T13:55:48.730Z,10.55
2019-04-07T13:58:35.708Z,11.38
2019-04-07T14:01:21.031Z,11.18
2019-04-07T14:04:16.723Z,12.18
2019-04-07T14:06:49.680Z,11.63
2019-04-07T14:09:35.362Z,11.95
2019-04-07T14:12:18.924Z,12.20
2019-04-07T14:15:00.215Z,11.43
2019-04-07T14:17:46.616Z,11.45
2019-04-07T14:20:24.463Z,11.95
2019-04-07T14:23:12.018Z,10.78
2019-04-07T14:25:47.061Z,10.23
2019-04-07T14:28:31.040Z,10.78
2019-04-07T14:31:07.639Z,9.58
2019-04-07T14:33:57.335Z,10.25
2019-04-07T14:36:39.205Z,10.58
2019-04-07T14:39:12.838Z,11.00
2019-04-07T14:42:04.604Z,9.88
2019-04-07T14:44:47.943Z,9.95
2019-04-07T14:47:41.427Z,11.70
2019-04-07T14:50:42.862Z,9.98
2019-04-07T14:53:45.398Z,10.15
2019-04-07T14:56:22.561Z,10.08
2019-04-07T14:58:58.561Z,9.85
2019-04-07T15:01:36.878Z,10.78
2019-04-07T15:04:05.143Z,9.33
2019-04-07T15:06:34.535Z,9.70
2019-04-07T15:09:10.185Z,9.43
2019-04-07T15:11:51.012Z,9.33
2019-04-07T15:14:18.092Z,9.93
2019-04-07T15:16:45.059Z,9.10
2019-04-07T15:19:11.704Z,9.70
2019-04-07T15:21:39.030Z,8.78
2019-04-07T15:24:07.217Z,9.48
2019-04-07T15:26:34.735Z,8.90
2019-04-07T15:29:04.679Z,9.28
2019-04-07T15:31:33.120Z,8.78
2019-04-07T15:34:06.362Z,8.58
2019-04-07T15:36:31.541Z,8.70
2019-04-07T15:38:59.547Z,8.95
2019-04-07T15:41:27.577Z,9.08
2019-04-07T15:43:55.266Z,9.13
2019-04-07T15:46:22.517Z,9.08
2019-04-07T15:48:49.858Z,9.30
2019-04-07T15:51:17.458Z,9.75
2019-04-07T15:53:49.768Z,10.08
2019-04-07T15:56:15.668Z,9.35
2019-04-07T15:58:41.952Z,9.28
2019-04-07T16:01:10.440Z,9.25
2019-04-07T16:03:38.793Z,10.10
2019-04-07T16:06:06.067Z,9.23
2019-04-07T16:08:33.726Z,9.60
2019-04-07T16:11:01.905Z,9.03
2019-04-07T16:13:29.238Z,9.68
2019-04-07T16:15:56.154Z,8.73
2019-04-07T16:18:23.253Z,9.40
2019-04-07T16:20:50.686Z,10.00
2019-04-07T16:23:19.267Z,9.55
2019-04-07T16:25:47.502Z,9.65
2019-04-07T16:28:16.033Z,23.50
2019-04-07T16:30:43.353Z,10.38
2019-04-07T16:33:10.082Z,9.75
2019-04-07T16:35:37.132Z,9.18
2019-04-07T16:38:05.211Z,9.23
2019-04-07T16:40:32.420Z,8.78
2019-04-07T16:43:09.552Z,9.25
2019-04-07T16:45:28.284Z,9.73
2019-04-07T16:47:55.059Z,9.28
2019-04-07T16:50:21.638Z,9.98
2019-04-07T16:52:48.528Z,9.78
2019-04-07T16:55:36.884Z,10.10
2019-04-07T16:58:04.573Z,9.13
2019-04-07T17:00:31.265Z,9.78
2019-04-07T17:02:57.753Z,8.88
2019-04-07T17:05:25.599Z,10.55
2019-04-07T17:07:54.827Z,9.35
2019-04-07T17:10:21.132Z,10.13
2019-04-07T17:12:49.589Z,9.73
2019-04-07T17:15:16.255Z,9.63
2019-04-07T17:17:43.462Z,10.23
2019-04-07T17:20:10.239Z,9.43
2019-04-07T17:22:38.209Z,9.80
2019-04-07T17:25:09.915Z,11.05
2019-04-07T17:27:40.885Z,10.43
2019-04-07T17:30:05.434Z,10.53
2019-04-07T17:32:35.829Z,10.30
2019-04-07T17:35:07.899Z,11.53
2019-04-07T17:37:37.856Z,12.07
2019-04-07T17:40:15.635Z,11.40
2019-04-07T17:42:50.769Z,11.70
2019-04-07T17:45:37.478Z,11.08
2019-04-07T17:48:23.342Z,12.18
2019-04-07T17:51:06.330Z,11.90
2019-04-07T17:53:49.585Z,12.03
2019-04-07T17:56:30.330Z,11.43
2019-04-07T17:59:22.071Z,12.53
2019-04-07T18:02:15.091Z,13.20
2019-04-07T18:05:04.441Z,13.18
2019-04-07T18:07:50.689Z,12.73
2019-04-07T18:10:29.487Z,13.37
2019-04-07T18:13:16.607Z,11.30
2019-04-07T18:16:01.692Z,12.60
2019-04-07T18:18:36.674Z,11.73
2019-04-07T18:21:13.407Z,12.18
2019-04-07T18:24:08.302Z,13.05
2019-04-07T18:26:53.675Z,12.00
2019-04-07T18:29:48.030Z,13.22
2019-04-07T18:32:43.113Z,12.40
2019-04-07T18:35:32.638Z,12.68
2019-04-07T18:38:17.386Z,12.67
2019-04-07T18:41:10.116Z,12.58
2019-04-07T18:43:57.818Z,12.27
2019-04-07T18:46:27.952Z,12.60
2019-04-07T18:49:18.035Z,12.87
2019-04-07T18:52:01.672Z,12.18
2019-04-07T18:54:39.934Z,12.10
2019-04-07T18:57:35.979Z,13.43
2019-04-07T19:00:42.319Z,13.13
2019-04-07T19:03:45.297Z,12.70
2019-04-07T19:06:31.259Z,13.50
2019-04-07T19:09:08.086Z,12.88
2019-04-07T19:11:47.229Z,12.58
2019-04-07T19:14:44.308Z,14.05
2019-04-07T19:17:27.267Z,12.30
2019-04-07T19:20:34.129Z,13.23
2019-04-07T19:23:18.465Z,12.73
2019-04-07T19:25:59.782Z,12.67
2019-04-07T19:28:49.762Z,13.37
2019-04-07T19:31:48.018Z,12.03
2019-04-07T19:34:32.812Z,13.30
2019-04-07T19:37:22.463Z,13.97
2019-04-07T19:40:04.341Z,12.60
2019-04-07T19:42:48.227Z,13.53
2019-04-07T19:45:32.994Z,13.67
2019-04-07T19:48:28.803Z,13.97
2019-04-07T19:51:14.288Z,13.27
2019-04-07T19:54:08.323Z,13.73
2019-04-07T19:56:42.444Z,13.57
2019-04-07T19:59:26.779Z,13.47
2019-04-07T20:02:13.433Z,14.07
2019-04-07T20:05:04.157Z,13.83
2019-04-07T20:07:50.824Z,13.80
2019-04-07T20:10:38.018Z,12.60
2019-04-07T20:13:20.000Z,14.03
2019-04-07T20:15:59.185Z,13.50
2019-04-07T20:18:37.400Z,13.27
2019-04-07T20:21:35.104Z,12.37
2019-04-07T20:24:11.275Z,14.03
2019-04-07T20:26:58.740Z,14.57
2019-04-07T20:29:44.762Z,16.30
2019-04-07T20:32:34.751Z,13.47
2019-04-07T20:35:19.713Z,15.88
2019-04-07T20:38:07.091Z,15.07
2019-04-07T20:40:59.919Z,14.80
2019-04-07T20:43:45.187Z,13.50
2019-04-07T20:46:23.800Z,13.53
2019-04-07T20:49:13.628Z,13.63
2019-04-07T20:52:16.995Z,13.40
2019-04-07T20:55:09.447Z,13.93
2019-04-07T20:58:14.608Z,14.07
2019-04-07T21:00:57.692Z,14.07
2019-04-07T21:03:45.075Z,13.83
2019-04-07T21:06:40.557Z,13.33
2019-04-07T21:09:21.562Z,13.07
2019-04-07T21:11:59.617Z,14.07
2019-04-07T21:14:45.348Z,13.50
2019-04-07T21:17:32.477Z,13.23
2019-04-07T21:20:15.575Z,14.00
2019-04-07T21:23:01.734Z,14.70
2019-04-07T21:25:43.346Z,14.20
2019-04-07T21:28:28.943Z,13.53
2019-04-07T21:31:03.412Z,13.50
2019-04-07T21:33:44.338Z,14.00
2019-04-07T21:36:30.071Z,15.03
2019-04-07T21:39:08.380Z,13.60
2019-04-07T21:42:00.497Z,13.47
2019-04-07T21:44:50.194Z,13.83
2019-04-07T21:47:58.002Z,13.73
2019-04-07T21:50:44.789Z,15.30
2019-04-07T21:53:41.035Z,15.87
2019-04-07T21:56:24.788Z,14.97
2019-04-07T21:59:07.745Z,15.07
2019-04-07T22:02:03.207Z,14.70
2019-04-07T22:04:50.626Z,14.67
2019-04-07T22:07:27.647Z,14.47
2019-04-07T22:09:58.847Z,16.20
2019-04-07T22:12:29.818Z,15.17
2019-04-07T22:14:56.289Z,15.37
2019-04-07T22:17:23.394Z,15.57
2019-04-07T22:19:50.212Z,14.87
2019-04-07T22:22:16.903Z,15.90
2019-04-07T22:24:44.835Z,16.43
2019-04-07T22:27:11.666Z,15.83
2019-04-07T22:29:38.372Z,15.97
2019-04-07T22:32:05.308Z,15.53
2019-04-07T22:34:33.781Z,15.80
2019-04-07T22:37:00.935Z,16.27
2019-04-07T22:39:29.795Z,15.67
2019-04-07T22:41:57.164Z,15.83
2019-04-07T22:44:24.761Z,15.80
2019-04-07T22:46:52.711Z,17.53
2019-04-07T22:49:19.839Z,18.07
2019-04-07T22:51:48.285Z,17.53
2019-04-07T22:54:16.726Z,17.47
2019-04-07T22:56:44.572Z,16.50
2019-04-07T22:59:12.794Z,16.97
2019-04-07T23:01:39.645Z,16.90
2019-04-07T23:04:07.105Z,17.43
2019-04-07T23:06:34.233Z,16.60
2019-04-07T23:09:01.550Z,16.93
2019-04-07T23:11:30.013Z,18.07
2019-04-07T23:13:56.747Z,18.23
2019-04-07T23:16:24.032Z,17.57
2019-04-07T23:18:52.080Z,18.83
2019-04-07T23:21:19.246Z,17.93
2019-04-07T23:23:46.233Z,18.00
2019-04-07T23:26:13.865Z,18.33
2019-04-07T23:28:40.577Z,20.47
2019-04-07T23:31:07.530Z,21.00
2019-04-07T23:33:34.780Z,19.80
2019-04-07T23:36:01.823Z,19.50
2019-04-07T23:38:28.943Z,20.57
2019-04-07T23:40:55.671Z,19.43
2019-04-07T23:43:22.440Z,18.87
2019-04-07T23:45:49.651Z,17.93
2019-04-07T23:48:17.984Z,19.07
2019-04-07T23:50:47.733Z,19.10
2019-04-07T23:53:50.807Z,19.43
2019-04-07T23:56:17.709Z,18.93
2019-04-07T23:58:45.559Z,18.13
